Columbiana, OH (44408)

8:19 AM EDT on October 20, 2014 (GMT -0400)
Columbiana WTP | Change Station
CLOSE
Current Station
Personal Weather Station
Location: Columbiana, OH
Elevation: 1164 ft
Nearby Weather Stations

Elev 1164 ft 40.87 °N, 80.67 °W | Updated 4 minutes ago

Overcast
Overcast
44.3 °F
Feels Like 44 °F
N
2.0
Wind Variable Wind from SSW
Gusts 7.0 mph

Today
High -- | Low -- °F
--% Chance of Precip.
Yesterday
High -- | Low -- °F
Precip. -- in
7:39 AM 6:34 PM
Waning Crescent, 11% visible
Pressure 29.99 in
Visibility 10.0 miles
Clouds Overcast 11000 ft
Windchill 44 °F
Dew Point 40 °F
Humidity 84%
Rainfall 0.00 in
Snow Depth Not available.
UV 0 out of 12
Pollen .50 out of 12
Air Quality Not available.
Flu Activity Sporadic
METAR KBVI 201147Z 18004KT 10SM OVC110 06/03 A2999

More Conditions Fewer Conditions

Pressure 29.99 in
Visibility 10.0 miles
Clouds Overcast 11000 ft
Windchill 44 °F
Dew Point 40 °F
Humidity 84%
Rainfall 0.00 in
Snow Depth Not available.
UV 0 out of 12
Pollen .50 out of 12
Air Quality Not available.
Flu Activity Sporadic
METAR KBVI 201147Z 18004KT 10SM OVC110 06/03 A2999

More Conditions Fewer Conditions

10-Day Weather Forecast

Almanac

Astronomy

Oct. 20, 2014 Rise Set
Actual Time 7:39 AM EDT 6:34 PM EDT
Civil Twilight 7:11 AM EDT 7:02 PM EDT
Nautical Twilight 6:39 AM EDT 7:34 PM EDT
Astronomical Twilight 6:07 AM EDT 8:06 PM EDT
Moon 4:25 AM EDT 4:57 PM EDT
Length of Visible Light 11h 50m
Length of Day
10h 55m
Waning Crescent, 11% of the Moon is Illuminated
Today
Waning Crescent
Oct 23
New
Oct 30
First Quarter
Nov 6
Full
Nov 14
Last Quarter

Today's Extremes

State Highs State Lows

Community

WunderPhotos

Upload Photos

1,763,349 photos uploaded!

WunderBlogs® & News

Nearby

Snow Depth

Station Depth Elevation
No new snow has been reported.

Earthquake Activity

City Distance Mag. Time & Date
No recent earthquake activity has been reported nearby.
Minimum magnitude displayed is 2.5.

Coastal Water Temperatures

Place Temperature
No Stations Reporting

Nearby Weather Stations